Meteosat more information blitzortung!


Radar lluvias  rain snow radar


Website of another weatherstation

Website of another weatherstation



Hay un problema de comunicación. Ir directamente al sitio Meteoalarm : www.meteoalarm.eu y comprobar el tiempo-warnings allí.

Pagina Historial Weather Underground texto

Diario Resumen Febrero 23, 2019 Unidades:  Métrico    impérial   Tanto
« Anterior Dia
Siguiente Dia »
Diario Semana Mensual Anual Personalizada
  Actual: Alto: Baja: Media:
Temperatura: -10.6 °C -17.8 °C -17.2 °C -12.9 °C
Punto de rocío: -14.9 °C -17.8 °C -19.1 °C -16.3 °C
Humedad: 59 % Humidity % 44 % 68 %
Velocidad del Viento: 6 km/h 0 km/h 0 km/h 7.6 km/h
Ráfagas de viento: 3.9 km/h 0 km/h - -
Viento:SE - - SSE
Pression baro: 34601.5 hPa 0 hPa 34533.8 hPa -
Précipitaciones: 0 mm      
Historical Graphs
 
 
Datos de tabla para Febrero 23, 2019
Tiempo Temperatura Punto de rocío Pression baro Viento Velocidad del Viento Ráfagas de viento Humedad Las precipitaciones Rate ( Hora )
-17.8 °C -17.8 °C 0 hPa Calm     Humidity % 0 mm
00:00 -13.9 °C -16.2 °C 34601.5 hPa East 9 km/h 7.7 km/h 75 % 0 mm
00:05 -13.9 °C -16.3 °C 34601.5 hPa ENE 11.4 km/h 8.5 km/h 74 % 0 mm
00:10 -14.4 °C -16.5 °C 34601.5 hPa SE 9 km/h 6.4 km/h 77 % 0 mm
00:15 -14.4 °C -16.4 °C 34601.5 hPa ENE 6 km/h 4.7 km/h 78 % 0 mm
00:20 -14.4 °C -16.4 °C 34601.5 hPa NNE 6 km/h 4.2 km/h 78 % 0 mm
00:25 -14.4 °C -16.4 °C 34601.5 hPa ENE 6 km/h 3.1 km/h 78 % 0 mm
00:30 -14.4 °C -16.4 °C 34635.4 hPa NNW 6 km/h 4.2 km/h 78 % 0 mm
00:35 -14.4 °C -16.3 °C 34601.5 hPa East 11.9 km/h 5.5 km/h 79 % 0 mm
00:40 -14.4 °C -16.3 °C 34601.5 hPa NE 9.7 km/h 8.9 km/h 79 % 0 mm
00:45 -14.4 °C -16.5 °C 34601.5 hPa NE 11.9 km/h 6.4 km/h 77 % 0 mm
00:50 -14.4 °C -16.5 °C 34601.5 hPa ENE 9 km/h 7.6 km/h 77 % 0 mm
00:55 -14.4 °C -16.5 °C 34601.5 hPa ENE 11.9 km/h 6.8 km/h 77 % 0 mm
01:00 -14.4 °C -16.5 °C 34635.4 hPa NE 9 km/h 7.2 km/h 77 % 0 mm
01:05 -14.4 °C -16.5 °C 34635.4 hPa NE 11.9 km/h 7.6 km/h 77 % 0 mm
01:10 -14.4 °C -16.6 °C 34601.5 hPa NE 9 km/h 3.7 km/h 76 % 0 mm
01:15 -14.4 °C -16.3 °C 34601.5 hPa North 6 km/h 4.2 km/h 79 % 0 mm
01:20 -15 °C -16.8 °C 34601.5 hPa NNW 6 km/h 3.7 km/h 80 % 0 mm
01:25 -15 °C -16.8 °C 34601.5 hPa ENE 3.1 km/h 1 km/h 80 % 0 mm
01:30 -15 °C -16.8 °C 34601.5 hPa NE 3.1 km/h 2.3 km/h 80 % 0 mm
01:35 -15 °C -16.8 °C 34601.5 hPa NE 3.1 km/h 2.6 km/h 79 % 0 mm
01:40 -15 °C -16.9 °C 34601.5 hPa ENE 6 km/h 4.2 km/h 78 % 0 mm
01:45 -15 °C -16.9 °C 34601.5 hPa ENE 6 km/h 0.5 km/h 78 % 0 mm
01:50 -15 °C -16.8 °C 34601.5 hPa NE 9 km/h 3.7 km/h 79 % 0 mm
01:55 -15 °C -16.7 °C 34601.5 hPa ENE 5 km/h 3.7 km/h 81 % 0 mm
02:00 -15 °C -16.7 °C 34601.5 hPa NE 9 km/h 4.3 km/h 81 % 0 mm
02:05 -15 °C -16.6 °C 34601.5 hPa ENE 9.7 km/h 5.1 km/h 82 % 0 mm
02:10 -15 °C -16.7 °C 34601.5 hPa ENE 8 km/h 4.3 km/h 81 % 0 mm
02:15 -15.6 °C -17.2 °C 34601.5 hPa NNE 5 km/h 2.9 km/h 81 % 0 mm
02:20 -15.6 °C -17.1 °C 34635.4 hPa NE 9 km/h 6.8 km/h 82 % 0 mm
02:25 -15.6 °C -17.1 °C 34601.5 hPa NE 6 km/h 4.3 km/h 82 % 0 mm
02:30 -15.6 °C -17.1 °C 34601.5 hPa NE 9 km/h 5.1 km/h 82 % 0 mm
02:35 -15.6 °C -17.2 °C 34601.5 hPa WNW 6 km/h 1 km/h 81 % 0 mm
02:40 -15.6 °C -17.3 °C 34601.5 hPa NE 6.4 km/h 4.7 km/h 80 % 0 mm
02:45 -15.6 °C -17.2 °C 34601.5 hPa ESE 9 km/h 3.7 km/h 81 % 0 mm
02:50 -15.6 °C -17.1 °C 34635.4 hPa NE 9 km/h 5 km/h 82 % 0 mm
02:55 -15.6 °C -17.2 °C 34601.5 hPa NE 9 km/h 5.5 km/h 81 % 0 mm
03:01 -15.6 °C -17.2 °C 34601.5 hPa NNE 6 km/h 3.4 km/h 81 % 0 mm
03:05 -15.6 °C -17.2 °C 34601.5 hPa ENE 9 km/h 5.6 km/h 81 % 0 mm
03:10 -15.6 °C -17.1 °C 34601.5 hPa NE 9 km/h 6.4 km/h 82 % 0 mm
03:15 -15.6 °C -17.1 °C 34601.5 hPa NNE 6 km/h 5.1 km/h 82 % 0 mm
03:20 -15.6 °C -17.2 °C 34601.5 hPa SE 3.1 km/h 0.8 km/h 81 % 0 mm
03:25 -15.6 °C -17 °C 34601.5 hPa NE 9 km/h 6.8 km/h 83 % 0 mm
03:30 -16.1 °C -17.4 °C 34601.5 hPa SE 9 km/h 5.5 km/h 85 % 0 mm
03:35 -16.1 °C -17.4 °C 34601.5 hPa ENE 6 km/h 2.6 km/h 84 % 0 mm
03:40 -16.1 °C -17.6 °C 34601.5 hPa ENE 6 km/h 3.1 km/h 83 % 0 mm
03:45 -16.1 °C -17.7 °C 34635.4 hPa North 6 km/h 2.9 km/h 82 % 0 mm
03:50 -16.1 °C -17.6 °C 34601.5 hPa ENE 6 km/h 4.2 km/h 83 % 0 mm
03:55 -16.1 °C -17.7 °C 34601.5 hPa NE 5 km/h 4.2 km/h 82 % 0 mm
04:00 -16.1 °C -17.6 °C 34635.4 hPa NE 1.6 km/h   83 % 0 mm
04:05 -16.1 °C -17.7 °C 34601.5 hPa North 3.1 km/h   82 % 0 mm
04:10 -16.1 °C -17.7 °C 34635.4 hPa NE 6.4 km/h 3.7 km/h 81 % 0 mm
04:15 -16.1 °C -17.6 °C 34601.5 hPa NNW 6 km/h 3.4 km/h 83 % 0 mm
04:20 -16.1 °C -17.4 °C 34601.5 hPa NNW 6 km/h 1.3 km/h 84 % 0 mm
04:25 -16.1 °C -17.4 °C 34601.5 hPa ENE 3.1 km/h 1.8 km/h 85 % 0 mm
04:31 -16.1 °C -17.4 °C 34635.4 hPa NNW 6 km/h 3.1 km/h 85 % 0 mm
04:35 -16.1 °C -17.3 °C 34601.5 hPa ENE 9 km/h 6.3 km/h 86 % 0 mm
04:40 -16.1 °C -17.4 °C 34601.5 hPa NW 3.1 km/h 3.1 km/h 85 % 0 mm
04:46 -16.1 °C -17.4 °C 34601.5 hPa WSW 3.1 km/h 1 km/h 84 % 0 mm
04:50 -16.1 °C -17.4 °C 34601.5 hPa NE 3.1 km/h 3.1 km/h 84 % 0 mm
04:55 -16.1 °C -17.4 °C 34635.4 hPa ENE 6 km/h 4.2 km/h 84 % 0 mm
05:00 -16.1 °C -17.4 °C 34635.4 hPa North 9 km/h 6 km/h 85 % 0 mm
05:05 -16.1 °C -17.3 °C 34635.4 hPa ENE 6 km/h 4.2 km/h 86 % 0 mm
05:10 -16.1 °C -17.2 °C 34635.4 hPa ENE 8 km/h 4.7 km/h 87 % 0 mm
05:15 -16.1 °C -17.2 °C 34635.4 hPa ENE 9 km/h 5 km/h 87 % 0 mm
05:20 -16.1 °C -17.2 °C 34635.4 hPa ENE 9 km/h 4.3 km/h 87 % 0 mm
05:25 -16.1 °C -17.2 °C 34635.4 hPa NNW 9 km/h 6.8 km/h 87 % 0 mm
05:30 -16.1 °C -17.1 °C 34635.4 hPa NE 9 km/h 5.5 km/h 88 % 0 mm
05:35 -16.1 °C -17.2 °C 34635.4 hPa East 6 km/h 1 km/h 87 % 0 mm
05:40 -16.7 °C -17.7 °C 34635.4 hPa NE 9 km/h 4.7 km/h 87 % 0 mm
05:45 -16.7 °C -17.7 °C 34635.4 hPa North 3.1 km/h 1.8 km/h 87 % 0 mm
05:50 -16.7 °C -17.8 °C 34635.4 hPa NE 6 km/h 4.7 km/h 86 % 0 mm
05:56 -16.7 °C -17.7 °C 34635.4 hPa ENE 6 km/h 2.9 km/h 87 % 0 mm
06:00 -16.7 °C -17.8 °C 34635.4 hPa NE 6 km/h 4.7 km/h 86 % 0 mm
06:05 -16.7 °C -17.8 °C 34635.4 hPa NNE 9 km/h 3.1 km/h 86 % 0 mm
06:10 -16.7 °C -17.7 °C 34601.5 hPa NNW 3.1 km/h   87 % 0 mm
06:15 -16.7 °C -17.7 °C 34635.4 hPa WSW 6 km/h 2.1 km/h 87 % 0 mm
06:20 -16.7 °C -17.9 °C 34635.4 hPa Calm     85 % 0 mm
06:25 -16.7 °C -18 °C 34635.4 hPa Calm     84 % 0 mm
06:31 -16.7 °C -18.1 °C 34635.4 hPa NE 3.1 km/h 2.9 km/h 83 % 0 mm
06:35 -16.7 °C -18 °C 34635.4 hPa NE 6 km/h 3.4 km/h 84 % 0 mm
06:40 -16.7 °C -17.9 °C 34635.4 hPa ENE 3.1 km/h   85 % 0 mm
06:45 -16.7 °C -17.8 °C 34635.4 hPa NW 3.1 km/h   86 % 0 mm
06:50 -16.7 °C -17.8 °C 34635.4 hPa Calm     86 % 0 mm
06:55 -16.7 °C -17.9 °C 34635.4 hPa NE 6 km/h 3.7 km/h 85 % 0 mm
07:00 -16.7 °C -17.9 °C 34601.5 hPa ENE 9 km/h 5 km/h 85 % 0 mm
07:05 -16.7 °C -17.8 °C 34601.5 hPa SE 9.7 km/h 6 km/h 86 % 0 mm
07:10 -16.7 °C -17.9 °C 34601.5 hPa NE 6 km/h 3.7 km/h 85 % 0 mm
07:15 -16.7 °C -17.9 °C 34601.5 hPa SE 6 km/h 2.1 km/h 85 % 0 mm
07:20 -16.7 °C -18 °C 34601.5 hPa NE 6 km/h 2.6 km/h 84 % 0 mm
07:25 -16.7 °C -18.1 °C 34601.5 hPa SE 1.6 km/h 0.5 km/h 83 % 0 mm
07:30 -16.7 °C -18.2 °C 34601.5 hPa NE 6 km/h 2.6 km/h 82 % 0 mm
07:35 -17.2 °C -18.7 °C 34635.4 hPa NE 5 km/h 4.2 km/h 83 % 0 mm
07:40 -16.7 °C -18 °C 34601.5 hPa Calm     84 % 0 mm
07:45 -16.7 °C -18.2 °C 34601.5 hPa Calm     82 % 0 mm
07:50 -17.2 °C -18.7 °C 34601.5 hPa Calm     82 % 0 mm
07:55 -17.2 °C -18.7 °C 34601.5 hPa Calm     82 % 0 mm
08:00 -17.2 °C -18.7 °C 34635.4 hPa Calm     82 % 0 mm
08:05 -17.2 °C -18.7 °C 34635.4 hPa Calm     82 % 0 mm
08:10 -17.2 °C -18.7 °C 34635.4 hPa NE 1.6 km/h 0.5 km/h 82 % 0 mm
08:15 -17.2 °C -18.6 °C 34635.4 hPa ENE 3.1 km/h   84 % 12.7 mm
08:20 -17.2 °C -18.4 °C 34635.4 hPa NE 6 km/h 2.9 km/h 85 % 0 mm
08:25 -17.2 °C -18.6 °C 34635.4 hPa NNE 3.1 km/h 1.6 km/h 84 % 0 mm
08:30 -16.7 °C -18.1 °C 34635.4 hPa NNW 3.1 km/h 0.8 km/h 83 % 0 mm
08:35 -16.7 °C -18.2 °C 34635.4 hPa SSE 3.1 km/h 2.1 km/h 82 % 0 mm
08:40 -16.7 °C -18.3 °C 34635.4 hPa NE 6 km/h 3.7 km/h 81 % 0 mm
08:45 -16.7 °C -18.3 °C 34635.4 hPa NNW 6 km/h 1.6 km/h 81 % 0 mm
08:50 -16.7 °C -18.3 °C 34635.4 hPa Calm     81 % 0 mm
08:55 -16.7 °C -18.3 °C 34635.4 hPa ENE 3.1 km/h 0.8 km/h 81 % 0 mm
09:00 -16.7 °C -18.3 °C 34635.4 hPa NW 6 km/h 2.9 km/h 81 % 0 mm
09:05 -16.1 °C -17.7 °C 34635.4 hPa WSW 6 km/h 3.9 km/h 81 % 0 mm
09:10 -15.6 °C -17.6 °C 34635.4 hPa SW 8 km/h 5 km/h 77 % 0 mm
09:15 -15.6 °C -18.8 °C 34669.3 hPa WSW 6 km/h 5 km/h 66 % 12.7 mm
09:20 -16.1 °C -19.1 °C 34669.3 hPa NW 3.1 km/h 1 km/h 68 % 0 mm
09:25 -16.1 °C -18.7 °C 34669.3 hPa NW 3.1 km/h 2.9 km/h 72 % 0 mm
09:30 -16.1 °C -18.3 °C 34669.3 hPa SW 6 km/h 2.9 km/h 75 % 0 mm
09:35 -16.1 °C -18.2 °C 34669.3 hPa SW 6 km/h 3.7 km/h 76 % 0 mm
09:40 -16.1 °C -18.2 °C 34669.3 hPa SW 6 km/h 5.6 km/h 76 % 0 mm
09:45 -15.6 °C -17.6 °C 34669.3 hPa NNW 11.9 km/h 6.3 km/h 77 % 0 mm
09:50 -15.6 °C -17.5 °C 34669.3 hPa SW 9 km/h 7.6 km/h 78 % 0 mm
09:55 -15.6 °C -17.4 °C 34669.3 hPa SW 9 km/h 6.9 km/h 79 % 0 mm
10:00 -15.6 °C -17.4 °C 34669.3 hPa SW 11.9 km/h 6.9 km/h 79 % 0 mm
10:05 -15.6 °C -17.4 °C 34669.3 hPa WSW 11.9 km/h 10.1 km/h 79 % 0 mm
10:10 -15.6 °C -17.4 °C 34669.3 hPa SW 11.9 km/h 8.2 km/h 79 % 0 mm
10:15 -15 °C -16.8 °C 34669.3 hPa SSW 11.9 km/h 5.5 km/h 79 % 0 mm
10:20 -15 °C -16.8 °C 34669.3 hPa WSW 11.9 km/h 10.3 km/h 79 % 0 mm
10:25 -14.4 °C -16.3 °C 34669.3 hPa WSW 15 km/h 6.9 km/h 79 % 0 mm
10:30 -14.4 °C -16.3 °C 34669.3 hPa NW 15 km/h 5.5 km/h 79 % 0 mm
10:35 -14.4 °C -16.3 °C 34669.3 hPa NW 9 km/h 5.6 km/h 79 % 0 mm
10:40 -14.4 °C -16.3 °C 34669.3 hPa WSW 6 km/h 3.7 km/h 79 % 0 mm
10:45 -14.4 °C -16.3 °C 34635.4 hPa WSW 9 km/h 6.8 km/h 79 % 0 mm
10:50 -13.9 °C -16 °C 34635.4 hPa WSW 9 km/h 5.6 km/h 77 % 0 mm
10:55 -13.9 °C -16.1 °C 34635.4 hPa South 6 km/h 1.3 km/h 76 % 0 mm
11:00 -13.9 °C -16.2 °C 34601.5 hPa SW 15 km/h 5.5 km/h 75 % 0 mm
11:05 -13.9 °C -16.2 °C 34601.5 hPa WSW 9 km/h 4.7 km/h 75 % 0 mm
11:10 -13.3 °C -15.6 °C 34635.4 hPa WSW 9 km/h 5.1 km/h 76 % 0 mm
11:15 -13.3 °C -15.7 °C 34635.4 hPa SW 9 km/h 7.2 km/h 75 % 0 mm
11:20 -12.8 °C -15.3 °C 34635.4 hPa WSW 9 km/h 3.9 km/h 73 % 0 mm
11:25 -12.8 °C -15.3 °C 34635.4 hPa SW 9 km/h 4.7 km/h 73 % 0 mm
11:30 -12.8 °C -15.6 °C 34635.4 hPa WSW 11.9 km/h 5.5 km/h 71 % 0 mm
11:35 -12.2 °C -15.4 °C 34635.4 hPa SW 15 km/h 6.8 km/h 68 % 0 mm
11:40 -11.7 °C -15.2 °C 34635.4 hPa WNW 11.9 km/h 9.3 km/h 65 % 0 mm
11:45 -11.7 °C -15.6 °C 34635.4 hPa NNW 9 km/h 3.4 km/h 62 % 0 mm
11:50 -11.7 °C -15.9 °C 34635.4 hPa WSW 9 km/h 2.3 km/h 59 % 0 mm
11:55 -11.1 °C -15.8 °C 34635.4 hPa SW 9 km/h 5.1 km/h 56 % 0 mm
12:00 -11.1 °C -16.2 °C 34635.4 hPa SE 11.9 km/h 6.3 km/h 54 % 0 mm
12:05 -11.1 °C -16.2 °C 34635.4 hPa SW 11.9 km/h 8 km/h 54 % 0 mm
12:10 -10.6 °C -15.8 °C 34635.4 hPa SW 11.9 km/h 5 km/h 53 % 0 mm
12:15 -10.6 °C -15.8 °C 34669.3 hPa SW 15 km/h 7.7 km/h 53 % 0 mm
12:20 -10.6 °C -16.1 °C 34635.4 hPa SW 9 km/h 6.9 km/h 51 % 0 mm
12:25 -10 °C -15.6 °C 34635.4 hPa WSW 9 km/h 3.9 km/h 51 % 0 mm
12:30 -10 °C -16 °C 34635.4 hPa NE 9 km/h 5.1 km/h 48 % 0 mm
12:35 -10 °C -16.3 °C 34635.4 hPa NNW 15 km/h 4.2 km/h 46 % 0 mm
12:40 -10 °C -16.6 °C 34635.4 hPa SE 11.9 km/h 9 km/h 45 % 0 mm
12:45 -10 °C -16 °C 34635.4 hPa SW 17.5 km/h 6.8 km/h 48 % 0 mm
12:50 -9.4 °C -15.5 °C 34635.4 hPa SW 15 km/h 8.9 km/h 48 % 0 mm
12:55 -8.9 °C -14.8 °C 34635.4 hPa WSW 9 km/h 4.2 km/h 49 % 0 mm
13:00 -8.9 °C -15 °C 34635.4 hPa SW 9 km/h 7.6 km/h 48 % 0 mm
13:05 -8.9 °C -15 °C 34635.4 hPa SE 11.9 km/h 4.3 km/h 48 % 0 mm
13:10 -8.9 °C -14.8 °C 34635.4 hPa WSW 9 km/h 3.1 km/h 49 % 0 mm
13:15 -8.9 °C -14.6 °C 34635.4 hPa NW 6.4 km/h 3.1 km/h 51 % 0 mm
13:20 -8.9 °C -14.6 °C 34635.4 hPa WSW 11.9 km/h 5.6 km/h 51 % 0 mm
13:25 -8.9 °C -14.8 °C 34635.4 hPa WSW 11.9 km/h 6.4 km/h 49 % 0 mm
13:30 -8.3 °C -14.5 °C 34635.4 hPa West 17.9 km/h 11.1 km/h 48 % 0 mm
13:35 -8.3 °C -14.5 °C 34635.4 hPa WSW 11.9 km/h 10.3 km/h 48 % 0 mm
13:40 -8.3 °C -15.2 °C 34635.4 hPa ENE 6.4 km/h 6.4 km/h 44 % 0 mm
13:45 -8.3 °C -14.7 °C 34635.4 hPa SW 15 km/h 9 km/h 47 % 0 mm
13:50 -8.3 °C -14.7 °C 34635.4 hPa West 15 km/h 10.1 km/h 47 % 0 mm
13:55 -8.3 °C -15.1 °C 34635.4 hPa SW 11.9 km/h 8.9 km/h 45 % 0 mm
14:00 -8.3 °C -14.8 °C 34635.4 hPa WSW 12.9 km/h 8.2 km/h 46 % 0 mm
14:05 -8.3 °C -14.8 °C 34635.4 hPa WSW 17.9 km/h 9.7 km/h 46 % 0 mm
14:10 -8.3 °C -15.2 °C 34601.5 hPa ESE 6 km/h 2.1 km/h 44 % 0 mm
14:15 -7.8 °C -14.5 °C 34601.5 hPa SSW 11.9 km/h 5 km/h 45 % 0 mm
14:20 -7.8 °C -14.5 °C 34601.5 hPa SE 12.9 km/h 6.9 km/h 45 % 0 mm
14:25 -7.8 °C -14.5 °C 34601.5 hPa WSW 9 km/h 3.4 km/h 45 % 0 mm
14:30 -7.8 °C -14.3 °C 34601.5 hPa SE 9 km/h 6.3 km/h 46 % 0 mm
14:35 -7.8 °C -14.7 °C 34601.5 hPa SW 9 km/h 6.3 km/h 44 % 0 mm
14:40 -7.8 °C -14.3 °C 34601.5 hPa NW 9 km/h 5.6 km/h 46 % 0 mm
14:45 -7.8 °C -14.3 °C 34601.5 hPa ESE 6 km/h 3.7 km/h 46 % 0 mm
14:50 -7.8 °C -14.5 °C 34601.5 hPa SW 6 km/h 2.3 km/h 45 % 0 mm
14:55 -7.8 °C -14.3 °C 34601.5 hPa West 9 km/h 7.2 km/h 46 % 0 mm
15:00 -7.8 °C -14.2 °C 34601.5 hPa NNW 11.9 km/h 6.8 km/h 47 % 0 mm
15:05 -7.2 °C -13.8 °C 34601.5 hPa WSW 9 km/h 6.4 km/h 46 % 0 mm
15:10 -7.2 °C -14 °C 34601.5 hPa WSW 8 km/h 2.9 km/h 45 % 0 mm
15:15 -6.7 °C -13.2 °C 34567.7 hPa SW 9 km/h 6.3 km/h 47 % 0 mm
15:20 -7.2 °C -13.7 °C 34601.5 hPa WSW 11.9 km/h 10.3 km/h 47 % 0 mm
15:25 -7.2 °C -13.7 °C 34567.7 hPa WSW 9.7 km/h 1.8 km/h 47 % 0 mm
15:30 -7.8 °C -14 °C 34567.7 hPa West 16.1 km/h 7.6 km/h 48 % 0 mm
15:35 -7.8 °C -14 °C 34567.7 hPa WNW 9 km/h 6.4 km/h 48 % 0 mm
15:40 -8.3 °C -14.5 °C 34567.7 hPa South 6 km/h 3.4 km/h 48 % 0 mm
15:45 -8.3 °C -14.7 °C 34567.7 hPa WSW 9.7 km/h 4.7 km/h 47 % 0 mm
15:50 -8.3 °C -14.5 °C 34567.7 hPa WSW 9 km/h 5.1 km/h 48 % 0 mm
15:55 -8.3 °C -14.7 °C 34567.7 hPa SSE 9.7 km/h 6.9 km/h 47 % 0 mm
16:00 -8.3 °C -14.7 °C 34567.7 hPa SSE 3.1 km/h 4.7 km/h 47 % 0 mm
16:05 -8.3 °C -14.7 °C 34567.7 hPa East 9 km/h 5.6 km/h 47 % 0 mm
16:10 -8.3 °C -14.7 °C 34567.7 hPa ENE 6 km/h 3.9 km/h 47 % 0 mm
16:15 -8.3 °C -14.5 °C 34567.7 hPa SSE 9 km/h 3.4 km/h 48 % 0 mm
16:20 -8.3 °C -14.5 °C 34567.7 hPa NNE 3.1 km/h 3.1 km/h 48 % 0 mm
16:25 -8.3 °C -14.7 °C 34567.7 hPa NNW 9 km/h 4.2 km/h 47 % 0 mm
16:30 -8.3 °C -14.7 °C 34567.7 hPa NE 9 km/h 4.2 km/h 47 % 0 mm
16:35 -8.3 °C -14.7 °C 34533.8 hPa SW 3.1 km/h 1.8 km/h 47 % 0 mm
16:40 -8.3 °C -14.7 °C 34533.8 hPa SW 6 km/h 4.3 km/h 47 % 0 mm
16:45 -8.3 °C -14.7 °C 34533.8 hPa NE 6 km/h 5.1 km/h 47 % 0 mm
16:50 -8.3 °C -14.7 °C 34533.8 hPa ENE 6.4 km/h 3.1 km/h 47 % 0 mm
16:55 -8.3 °C -14.7 °C 34533.8 hPa NE 6.4 km/h 5.1 km/h 47 % 0 mm
17:00 -8.3 °C -14.5 °C 34533.8 hPa SW 6 km/h 2.3 km/h 48 % 0 mm
17:05 -8.3 °C -14.7 °C 34533.8 hPa ENE 6 km/h 0.8 km/h 47 % 0 mm
17:10 -8.3 °C -14.7 °C 34533.8 hPa NE 6.4 km/h 4.7 km/h 47 % 0 mm
17:15 -8.3 °C -14.5 °C 34533.8 hPa ENE 6 km/h 2.1 km/h 48 % 0 mm
17:20 -8.3 °C -14.5 °C 34533.8 hPa NE 6 km/h 3.4 km/h 48 % 0 mm
17:25 -8.3 °C -14.2 °C 34533.8 hPa NNW 6 km/h 3.9 km/h 50 % 0 mm
17:30 -8.3 °C -14.3 °C 34533.8 hPa NE 6 km/h 3.4 km/h 49 % 0 mm
17:35 -8.9 °C -14.7 °C 34533.8 hPa North 6.4 km/h 6.4 km/h 50 % 0 mm
17:40 -8.9 °C -14.7 °C 34533.8 hPa SE 6 km/h 3.9 km/h 50 % 0 mm
17:45 -8.9 °C -14.6 °C 34533.8 hPa SE 6 km/h 3.7 km/h 51 % 0 mm
17:50 -8.9 °C -14.6 °C 34533.8 hPa ENE 6 km/h 3.4 km/h 51 % 0 mm
17:55 -8.9 °C -14.3 °C 34567.7 hPa East 6 km/h 3.4 km/h 52 % 0 mm
18:00 -8.9 °C -14.2 °C 34533.8 hPa SE 6 km/h 3.4 km/h 53 % 0 mm
18:05 -8.9 °C -14.2 °C 34567.7 hPa South 9 km/h 3.7 km/h 53 % 0 mm
18:10 -8.9 °C -14.2 °C 34567.7 hPa SE 6 km/h 3.7 km/h 53 % 0 mm
18:15 -8.9 °C -14.1 °C 34567.7 hPa NE 6 km/h 3.4 km/h 54 % 0 mm
18:20 -9.4 °C -14.4 °C 34567.7 hPa NNW 6 km/h 3.1 km/h 55 % 0 mm
18:25 -9.4 °C -14.4 °C 34567.7 hPa NE 9 km/h 5 km/h 55 % 0 mm
18:30 -10 °C -14.9 °C 34567.7 hPa NE 9 km/h 5.5 km/h 55 % 0 mm
18:35 -10 °C -14.8 °C 34567.7 hPa North 6 km/h 3.9 km/h 56 % 0 mm
18:40 -10 °C -14.8 °C 34567.7 hPa East 9 km/h 3.7 km/h 56 % 0 mm
18:45 -10 °C -14.6 °C 34567.7 hPa NE 9 km/h 6.8 km/h 58 % 0 mm
18:50 -10 °C -14.6 °C 34567.7 hPa ENE 6.4 km/h 5.5 km/h 58 % 0 mm
18:55 -10.6 °C -15.1 °C 34567.7 hPa NNW 9 km/h 4.3 km/h 58 % 0 mm
19:00 -10.6 °C -15.1 °C 34567.7 hPa ENE 9 km/h 5.5 km/h 58 % 0 mm
19:05 -10.6 °C -15.1 °C 34567.7 hPa ENE 9 km/h 4.3 km/h 58 % 0 mm
19:10 -10.6 °C -15.1 °C 34567.7 hPa ENE 9 km/h 4.3 km/h 58 % 0 mm
19:15 -10.6 °C -15.1 °C 34567.7 hPa ENE 9 km/h 6 km/h 58 % 0 mm
19:20 -10.6 °C -14.9 °C 34567.7 hPa SE 6 km/h 4.3 km/h 59 % 0 mm
19:25 -10.6 °C -14.9 °C 34601.5 hPa ENE 6 km/h 4.7 km/h 59 % 0 mm
19:30 -10.6 °C -14.9 °C 34601.5 hPa SE 6 km/h 3.9 km/h 59 % 0 mm
Alcoletge
Elogios de Weather Underground - 1.5 mb

Guión original por  Jim McMurry - jmcmurry@mwt.net Adaptado para la plantilla por  Wim van der Kuil - Leuven-Template.eu

Usted encontrará nuestra información del tiempo también en:

Weather Underground

Iberian Peninsula Weather Network